createdAt,value
2023-07-25T00:02:09.700Z,6.07
2023-07-25T00:04:37.749Z,5.80
2023-07-25T00:07:06.179Z,6.47
2023-07-25T00:09:34.199Z,5.97
2023-07-25T00:12:03.537Z,6.07
2023-07-25T00:14:32.211Z,6.27
2023-07-25T00:17:00.208Z,5.43
2023-07-25T00:19:28.637Z,5.93
2023-07-25T00:21:56.686Z,5.97
2023-07-25T00:24:24.953Z,7.03
2023-07-25T00:26:52.981Z,6.63
2023-07-25T00:29:22.349Z,5.37
2023-07-25T00:31:50.382Z,6.40
2023-07-25T00:34:18.415Z,6.67
2023-07-25T00:36:46.421Z,6.47
2023-07-25T00:39:14.497Z,7.13
2023-07-25T00:41:42.666Z,6.23
2023-07-25T00:44:10.900Z,7.20
2023-07-25T00:46:40.311Z,6.10
2023-07-25T00:49:08.358Z,6.30
2023-07-25T00:51:36.589Z,6.37
2023-07-25T00:54:04.705Z,6.13
2023-07-25T00:56:33.508Z,6.00
2023-07-25T00:59:01.452Z,5.53
2023-07-25T01:01:30.421Z,6.43
2023-07-25T01:04:00.170Z,6.33
2023-07-25T01:06:29.073Z,6.40
2023-07-25T01:08:58.482Z,7.73
2023-07-25T01:11:26.941Z,9.37
2023-07-25T01:13:54.929Z,10.50
2023-07-25T01:16:26.080Z,11.07
2023-07-25T01:18:55.093Z,10.60
2023-07-25T01:21:25.083Z,10.67
2023-07-25T01:23:53.163Z,9.50
2023-07-25T01:26:24.987Z,6.87
2023-07-25T01:28:52.975Z,6.20
2023-07-25T01:31:20.922Z,5.77
2023-07-25T01:33:48.959Z,5.87
2023-07-25T01:36:17.004Z,6.47
2023-07-25T01:38:45.036Z,6.33
2023-07-25T01:41:12.933Z,5.13
2023-07-25T01:43:42.376Z,5.93
2023-07-25T01:46:10.436Z,6.47
2023-07-25T01:48:38.401Z,6.07
2023-07-25T01:51:06.359Z,6.10
2023-07-25T01:53:34.316Z,6.03
2023-07-25T01:56:02.553Z,6.57
2023-07-25T01:58:30.507Z,7.03
2023-07-25T02:01:00.666Z,6.23
2023-07-25T02:03:30.160Z,6.50
2023-07-25T02:05:58.198Z,6.70
2023-07-25T02:08:26.136Z,6.87
2023-07-25T02:10:54.078Z,7.07
2023-07-25T02:13:22.108Z,6.67
2023-07-25T02:15:50.041Z,6.53
2023-07-25T02:18:19.407Z,6.10
2023-07-25T02:20:47.439Z,5.73
2023-07-25T02:23:15.404Z,5.80
2023-07-25T02:25:43.446Z,6.03
2023-07-25T02:28:11.522Z,6.47
2023-07-25T02:30:39.468Z,7.33
2023-07-25T02:33:07.474Z,6.97
2023-07-25T02:35:36.883Z,6.70
2023-07-25T02:38:04.832Z,5.93
2023-07-25T02:40:32.757Z,6.00
2023-07-25T02:43:01.059Z,7.80
2023-07-25T02:45:29.102Z,6.60
2023-07-25T02:47:57.182Z,5.97
2023-07-25T02:50:25.154Z,6.43
2023-07-25T02:52:54.627Z,7.97
2023-07-25T02:55:22.773Z,7.77
2023-07-25T02:57:50.702Z,8.30
2023-07-25T03:00:18.723Z,8.53
2023-07-25T03:02:46.734Z,7.03
2023-07-25T03:05:16.389Z,6.10
2023-07-25T03:07:44.525Z,6.30
2023-07-25T03:10:13.847Z,6.20
2023-07-25T03:12:41.980Z,7.33
2023-07-25T03:15:10.481Z,5.90
2023-07-25T03:17:38.873Z,5.97
2023-07-25T03:20:08.529Z,5.57
2023-07-25T03:22:36.676Z,5.70
2023-07-25T03:25:04.625Z,6.53
2023-07-25T03:27:34.206Z,6.27
2023-07-25T03:30:02.146Z,6.00
2023-07-25T03:32:30.241Z,6.37
2023-07-25T03:34:58.450Z,6.40
2023-07-25T03:37:26.501Z,6.40
2023-07-25T03:39:54.451Z,6.07
2023-07-25T03:42:22.552Z,6.10
2023-07-25T03:44:52.971Z,6.13
2023-07-25T03:47:20.892Z,6.53
2023-07-25T03:49:48.924Z,6.13
2023-07-25T03:52:16.858Z,6.53
2023-07-25T03:54:44.851Z,6.03
2023-07-25T03:57:12.837Z,6.27
2023-07-25T03:59:40.878Z,6.73
2023-07-25T04:02:10.471Z,6.23
2023-07-25T04:04:38.669Z,6.43
2023-07-25T04:07:07.643Z,6.27
2023-07-25T04:09:35.622Z,6.03
2023-07-25T04:12:03.589Z,6.73
2023-07-25T04:14:31.462Z,6.33
2023-07-25T04:16:59.485Z,6.13
2023-07-25T04:19:28.877Z,6.20
2023-07-25T04:21:56.836Z,5.60
2023-07-25T04:24:24.816Z,5.93
2023-07-25T04:26:52.867Z,6.47
2023-07-25T04:29:20.870Z,6.43
2023-07-25T04:31:50.083Z,6.33
2023-07-25T04:34:18.049Z,5.73
2023-07-25T04:36:47.385Z,6.77
2023-07-25T04:39:15.456Z,6.30
2023-07-25T04:41:43.398Z,6.13
2023-07-25T04:44:11.366Z,6.77
2023-07-25T04:46:39.296Z,6.43
2023-07-25T04:49:08.047Z,6.93
2023-07-25T04:51:36.082Z,6.93
2023-07-25T04:54:05.525Z,6.83
2023-07-25T04:56:33.622Z,5.70
2023-07-25T04:59:01.760Z,7.73
2023-07-25T05:01:30.146Z,7.40
2023-07-25T05:03:58.365Z,6.77
2023-07-25T05:06:26.353Z,6.53
2023-07-25T05:08:54.558Z,5.90
2023-07-25T05:11:24.011Z,7.37
2023-07-25T05:13:51.988Z,6.30
2023-07-25T05:16:20.488Z,7.27
2023-07-25T05:18:48.998Z,6.00
2023-07-25T05:21:16.984Z,6.87
2023-07-25T05:23:44.920Z,6.73
2023-07-25T05:26:12.783Z,7.17
2023-07-25T05:28:42.328Z,6.80
2023-07-25T05:31:10.314Z,6.90
2023-07-25T05:33:38.478Z,7.50
2023-07-25T05:36:06.710Z,7.30
2023-07-25T05:38:34.933Z,8.17
2023-07-25T05:41:02.979Z,7.97
2023-07-25T05:43:30.988Z,7.33
2023-07-25T05:46:00.502Z,7.90
2023-07-25T05:48:28.743Z,7.47
2023-07-25T05:50:56.681Z,7.63
2023-07-25T05:53:24.698Z,7.33
2023-07-25T05:55:52.627Z,8.37
2023-07-25T05:58:20.959Z,8.47
2023-07-25T06:00:49.937Z,7.90
2023-07-25T06:03:19.425Z,6.13
2023-07-25T06:05:47.705Z,7.17
2023-07-25T06:08:15.849Z,6.33
2023-07-25T06:10:44.721Z,6.60
2023-07-25T06:13:12.813Z,6.87
2023-07-25T06:15:40.829Z,6.33
2023-07-25T06:18:08.858Z,8.00
2023-07-25T06:20:38.131Z,6.70
2023-07-25T06:23:06.280Z,6.00
2023-07-25T06:25:34.251Z,6.03
2023-07-25T06:28:02.213Z,8.07
2023-07-25T06:30:30.594Z,6.63
2023-07-25T06:32:58.676Z,7.10
2023-07-25T06:35:26.678Z,7.60
2023-07-25T06:37:56.058Z,8.43
2023-07-25T06:40:24.354Z,7.33
2023-07-25T06:42:52.335Z,6.60
2023-07-25T06:45:20.344Z,7.17
2023-07-25T06:47:48.455Z,6.43
2023-07-25T06:50:16.522Z,7.07
2023-07-25T06:52:44.548Z,7.33
2023-07-25T06:55:13.940Z,9.20
2023-07-25T06:57:41.977Z,7.47
2023-07-25T07:00:11.615Z,8.93
2023-07-25T07:02:39.632Z,6.60
2023-07-25T07:05:23.832Z,6.77
2023-07-25T07:07:55.879Z,6.63
2023-07-25T07:10:25.272Z,6.97
2023-07-25T07:12:54.861Z,8.68
2023-07-25T07:15:25.643Z,5.40
2023-07-25T07:17:54.287Z,6.53
2023-07-25T07:20:22.819Z,6.13
2023-07-25T07:22:50.878Z,6.80
2023-07-25T07:25:18.888Z,7.37
2023-07-25T07:27:48.370Z,7.53
2023-07-25T07:30:16.373Z,7.73
2023-07-25T07:32:44.467Z,8.50
2023-07-25T07:35:12.520Z,8.53
2023-07-25T07:37:40.596Z,7.77
2023-07-25T07:40:09.806Z,7.87
2023-07-25T07:42:37.829Z,8.53
2023-07-25T07:45:09.360Z,7.67
2023-07-25T07:47:37.550Z,7.57
2023-07-25T07:50:06.142Z,8.77
2023-07-25T07:52:42.449Z,9.00
2023-07-25T07:55:13.207Z,7.53
2023-07-25T07:57:42.921Z,9.53
2023-07-25T08:00:14.941Z,10.17
2023-07-25T08:02:43.806Z,7.93
2023-07-25T08:05:13.202Z,8.70
2023-07-25T08:07:41.860Z,11.20
2023-07-25T08:10:10.649Z,10.23
2023-07-25T08:12:39.068Z,7.83
2023-07-25T08:15:08.437Z,12.33
2023-07-25T08:17:38.043Z,12.37
2023-07-25T08:20:07.586Z,14.03
2023-07-25T08:22:35.591Z,12.03
2023-07-25T08:25:03.947Z,12.20
2023-07-25T08:27:31.923Z,10.87
2023-07-25T08:30:00.190Z,9.20
2023-07-25T08:32:28.282Z,8.20
2023-07-25T08:34:57.785Z,9.20
2023-07-25T08:37:26.381Z,9.63
2023-07-25T08:39:54.460Z,7.60
2023-07-25T08:42:26.355Z,7.90
2023-07-25T08:44:55.861Z,7.60
2023-07-25T08:47:28.430Z,7.87
2023-07-25T08:49:59.564Z,7.90
2023-07-25T08:52:30.189Z,9.07
2023-07-25T08:54:58.780Z,11.57
2023-07-25T08:57:28.524Z,10.40
2023-07-25T08:59:56.886Z,7.70
2023-07-25T09:02:25.208Z,6.77
2023-07-25T09:04:54.876Z,7.53
2023-07-25T09:07:24.186Z,7.97
2023-07-25T09:09:52.335Z,7.13
2023-07-25T09:12:20.487Z,7.53
2023-07-25T09:14:48.559Z,7.17
2023-07-25T09:17:16.563Z,6.90
2023-07-25T09:19:44.589Z,6.70
2023-07-25T09:25:10.827Z,7.60
2023-07-25T09:27:38.982Z,7.70
2023-07-25T09:30:14.610Z,7.43
2023-07-25T09:32:46.972Z,6.93
2023-07-25T09:35:15.293Z,8.57
2023-07-25T09:37:43.288Z,8.53
2023-07-25T09:40:13.727Z,8.50
2023-07-25T09:42:42.727Z,6.70
2023-07-25T09:45:11.738Z,8.67
2023-07-25T09:47:40.533Z,8.10
2023-07-25T09:50:09.277Z,9.73
2023-07-25T09:52:41.746Z,8.57
2023-07-25T09:55:10.947Z,7.93
2023-07-25T09:57:41.122Z,6.83
2023-07-25T10:00:10.746Z,7.93
2023-07-25T10:02:39.623Z,7.07
2023-07-25T10:05:09.558Z,8.03
2023-07-25T10:07:39.256Z,8.73
2023-07-25T10:10:08.888Z,8.10
2023-07-25T10:12:36.858Z,6.87
2023-07-25T10:15:07.612Z,7.20
2023-07-25T10:17:35.866Z,7.40
2023-07-25T10:20:09.507Z,6.90
2023-07-25T10:22:40.727Z,7.37
2023-07-25T10:25:11.382Z,7.43
2023-07-25T10:27:39.551Z,6.40
2023-07-25T10:30:24.264Z,7.30
2023-07-25T10:32:53.920Z,7.37
2023-07-25T10:35:43.622Z,7.67
2023-07-25T10:38:12.907Z,7.80
2023-07-25T10:40:58.517Z,8.00
2023-07-25T10:43:31.073Z,10.27
2023-07-25T10:46:03.270Z,10.57
2023-07-25T10:48:37.050Z,10.13
2023-07-25T10:51:09.764Z,9.17
2023-07-25T10:53:38.081Z,8.77
2023-07-25T10:56:16.596Z,7.67
2023-07-25T10:59:06.770Z,8.03
2023-07-25T11:01:45.549Z,7.60
2023-07-25T11:04:28.129Z,7.40
2023-07-25T11:06:58.026Z,7.07
2023-07-25T11:09:27.193Z,7.83
2023-07-25T11:11:56.188Z,7.63
2023-07-25T11:14:24.491Z,6.40
2023-07-25T11:16:56.159Z,7.57
2023-07-25T11:19:28.408Z,7.40
2023-07-25T11:21:56.636Z,8.47
2023-07-25T11:24:24.706Z,8.40
2023-07-25T11:26:52.841Z,7.87
2023-07-25T11:29:20.949Z,6.83
2023-07-25T11:31:50.796Z,6.63
2023-07-25T11:34:21.641Z,7.20
2023-07-25T11:36:50.053Z,8.23
2023-07-25T11:39:19.073Z,6.57
2023-07-25T11:41:48.152Z,7.13
2023-07-25T11:44:17.962Z,6.47
2023-07-25T11:46:49.167Z,6.60
2023-07-25T11:49:28.324Z,6.30
2023-07-25T11:52:08.376Z,6.67
2023-07-25T11:54:36.698Z,6.70
2023-07-25T11:57:07.733Z,8.00
2023-07-25T11:59:41.389Z,7.50
2023-07-25T12:02:09.804Z,6.47
2023-07-25T12:04:44.010Z,5.90
2023-07-25T12:07:13.469Z,6.87
2023-07-25T12:09:41.562Z,7.17
2023-07-25T12:12:13.797Z,8.50
2023-07-25T12:14:42.433Z,11.50
2023-07-25T12:17:10.504Z,10.10
2023-07-25T12:19:38.461Z,8.50
2023-07-25T12:22:07.229Z,7.20
2023-07-25T12:24:42.700Z,7.00
2023-07-25T12:27:18.627Z,9.27
2023-07-25T12:29:46.654Z,8.73
2023-07-25T12:32:14.980Z,8.60
2023-07-25T12:34:42.896Z,10.60
2023-07-25T12:37:10.848Z,11.40
2023-07-25T12:39:40.468Z,10.67
2023-07-25T12:42:10.028Z,9.82
2023-07-25T12:44:38.220Z,9.35
2023-07-25T12:47:06.833Z,9.13
2023-07-25T12:49:35.063Z,7.63
2023-07-25T12:52:03.085Z,7.80
2023-07-25T12:54:30.980Z,6.80
2023-07-25T12:56:59.400Z,7.13
2023-07-25T12:59:28.802Z,7.40
2023-07-25T13:01:56.960Z,7.90
2023-07-25T13:04:25.073Z,7.32
2023-07-25T13:06:53.513Z,7.60
2023-07-25T13:09:21.549Z,8.68
2023-07-25T13:11:49.459Z,6.97
2023-07-25T13:14:17.452Z,7.53
2023-07-25T13:16:46.831Z,7.43
2023-07-25T13:19:15.027Z,8.55
2023-07-25T13:21:43.011Z,8.18
2023-07-25T13:24:10.949Z,8.45
2023-07-25T13:26:39.048Z,8.20
2023-07-25T13:29:07.033Z,7.72
2023-07-25T13:31:35.700Z,6.50
2023-07-25T13:34:05.127Z,6.15
2023-07-25T13:36:33.107Z,6.43
2023-07-25T13:39:01.086Z,8.00
2023-07-25T13:41:29.419Z,7.80
2023-07-25T13:43:57.638Z,8.77
2023-07-25T13:46:25.827Z,7.40
2023-07-25T13:48:53.905Z,7.97
2023-07-25T13:51:23.329Z,9.07
2023-07-25T13:53:51.305Z,9.03
2023-07-25T13:56:19.306Z,6.75
2023-07-25T13:58:47.991Z,6.60
2023-07-25T14:01:16.017Z,7.57
2023-07-25T14:03:44.021Z,7.97
2023-07-25T14:06:11.996Z,8.60
2023-07-25T14:08:41.520Z,8.05
2023-07-25T14:11:09.547Z,7.15
2023-07-25T14:13:37.513Z,6.90
2023-07-25T14:16:05.989Z,8.45
2023-07-25T14:18:34.051Z,8.55
2023-07-25T14:21:02.048Z,8.10
2023-07-25T14:23:30.143Z,8.02
2023-07-25T14:25:59.470Z,7.47
2023-07-25T14:28:27.547Z,8.10
2023-07-25T14:30:55.596Z,7.80
2023-07-25T14:33:23.645Z,8.05
2023-07-25T14:35:51.980Z,7.40
2023-07-25T14:38:20.131Z,7.70
2023-07-25T14:40:48.356Z,7.30
2023-07-25T14:43:17.660Z,8.18
2023-07-25T14:45:45.777Z,8.52
2023-07-25T14:48:13.822Z,8.65
2023-07-25T14:50:43.036Z,8.10
2023-07-25T14:53:10.988Z,8.32
2023-07-25T14:55:39.029Z,8.32
2023-07-25T14:58:07.013Z,7.50
2023-07-25T15:00:36.526Z,7.50
2023-07-25T15:03:06.058Z,8.13
2023-07-25T15:05:34.058Z,7.22
2023-07-25T15:08:01.999Z,7.45
2023-07-25T15:10:30.076Z,7.15
2023-07-25T15:12:57.992Z,7.90
2023-07-25T15:15:26.198Z,7.75
2023-07-25T15:17:56.587Z,7.25
2023-07-25T15:20:24.503Z,7.15
2023-07-25T15:22:52.465Z,7.32
2023-07-25T15:25:21.649Z,6.70
2023-07-25T15:27:49.676Z,7.32
2023-07-25T15:30:18.655Z,8.10
2023-07-25T15:32:46.684Z,7.47
2023-07-25T15:35:16.138Z,7.10
2023-07-25T15:37:44.026Z,6.65
2023-07-25T15:40:12.698Z,6.60
2023-07-25T15:42:40.641Z,7.03
2023-07-25T15:45:09.722Z,7.40
2023-07-25T15:47:37.714Z,8.98
2023-07-25T15:50:06.443Z,8.45
2023-07-25T15:52:36.117Z,6.55
2023-07-25T15:55:05.217Z,6.63
2023-07-25T15:57:33.241Z,6.55
2023-07-25T16:00:01.229Z,6.80
2023-07-25T16:02:29.252Z,7.78
2023-07-25T16:04:57.165Z,7.70
2023-07-25T16:07:25.146Z,10.23
2023-07-25T16:09:54.610Z,10.27
2023-07-25T16:12:22.648Z,6.75
2023-07-25T16:14:51.089Z,6.25
2023-07-25T16:17:19.129Z,6.72
2023-07-25T16:19:47.196Z,7.65
2023-07-25T16:22:15.941Z,7.43
2023-07-25T16:24:44.196Z,8.35
2023-07-25T16:27:15.019Z,8.00
2023-07-25T16:29:43.156Z,7.50
2023-07-25T16:32:11.651Z,6.40
2023-07-25T16:34:40.565Z,6.97
2023-07-25T16:37:08.549Z,7.45
2023-07-25T16:39:36.490Z,17.88
2023-07-25T16:42:04.546Z,8.05
2023-07-25T16:44:33.921Z,10.10
2023-07-25T16:47:02.008Z,10.25
2023-07-25T16:49:30.300Z,7.70
2023-07-25T16:51:58.281Z,7.30
2023-07-25T16:54:26.728Z,7.60
2023-07-25T16:56:54.621Z,7.57
2023-07-25T16:59:22.765Z,6.38
2023-07-25T17:01:52.227Z,7.05
2023-07-25T17:04:20.305Z,12.73
2023-07-25T17:06:48.255Z,6.93
2023-07-25T17:09:16.400Z,6.57
2023-07-25T17:11:44.626Z,7.17
2023-07-25T17:14:12.631Z,7.80
2023-07-25T17:16:40.718Z,8.40
2023-07-25T17:19:13.818Z,6.10
2023-07-25T17:21:42.878Z,7.07
2023-07-25T17:24:10.830Z,6.97
2023-07-25T17:26:39.037Z,8.37
2023-07-25T17:29:07.214Z,8.10
2023-07-25T17:31:35.731Z,8.57
2023-07-25T17:34:04.260Z,7.17
2023-07-25T17:36:33.690Z,11.97
2023-07-25T17:39:01.678Z,7.13
2023-07-25T17:41:30.658Z,9.17
2023-07-25T17:43:58.924Z,7.10
2023-07-25T17:46:26.885Z,7.20
2023-07-25T17:48:56.037Z,7.20
2023-07-25T17:51:24.118Z,6.60
2023-07-25T17:53:53.494Z,6.80
2023-07-25T17:56:21.694Z,6.80
2023-07-25T17:58:49.685Z,7.63
2023-07-25T18:01:17.971Z,7.83
2023-07-25T18:03:46.030Z,6.50
2023-07-25T18:06:15.288Z,7.43
2023-07-25T18:08:43.254Z,7.10
2023-07-25T18:11:12.760Z,7.73
2023-07-25T18:13:40.723Z,6.63
2023-07-25T18:16:09.027Z,8.10
2023-07-25T18:18:37.134Z,7.73
2023-07-25T18:21:06.281Z,6.80
2023-07-25T18:23:35.869Z,6.83
2023-07-25T18:26:03.978Z,7.50
2023-07-25T18:28:33.309Z,8.50
2023-07-25T18:31:01.208Z,6.40
2023-07-25T18:33:29.336Z,8.27
2023-07-25T18:35:57.356Z,7.37
2023-07-25T18:38:25.426Z,7.33
2023-07-25T18:40:53.364Z,7.60
2023-07-25T18:43:26.346Z,8.13
2023-07-25T18:45:55.738Z,9.43
2023-07-25T18:48:24.022Z,9.03
2023-07-25T18:50:53.313Z,7.17
2023-07-25T18:53:21.303Z,9.00
2023-07-25T18:55:50.214Z,7.77
2023-07-25T18:58:18.293Z,7.53
2023-07-25T19:00:46.261Z,7.20
2023-07-25T19:03:15.675Z,7.53
2023-07-25T19:05:43.666Z,6.60
2023-07-25T19:08:11.673Z,7.20
2023-07-25T19:10:39.619Z,7.93
2023-07-25T19:13:07.583Z,7.87
2023-07-25T19:15:35.695Z,11.63
2023-07-25T19:18:03.894Z,10.33
2023-07-25T19:20:33.306Z,7.47
2023-07-25T19:23:14.999Z,11.87
2023-07-25T19:25:47.620Z,10.60
2023-07-25T19:28:15.536Z,8.83
2023-07-25T19:30:44.794Z,7.70
2023-07-25T19:33:12.904Z,6.97
2023-07-25T19:35:42.239Z,7.67
2023-07-25T19:38:11.767Z,10.27
2023-07-25T19:40:39.801Z,8.37
2023-07-25T19:43:07.768Z,7.20
2023-07-25T19:45:35.680Z,7.13
2023-07-25T19:48:03.740Z,7.33
2023-07-25T19:50:31.746Z,7.33
2023-07-25T19:53:01.172Z,7.90
2023-07-25T19:55:29.340Z,9.33
2023-07-25T19:57:57.351Z,7.10
2023-07-25T20:00:25.378Z,6.77
2023-07-25T20:02:53.504Z,6.80
2023-07-25T20:05:21.934Z,7.50
2023-07-25T20:07:49.925Z,7.03
2023-07-25T20:10:19.170Z,8.07
2023-07-25T20:12:47.206Z,7.63
2023-07-25T20:15:16.194Z,6.97
2023-07-25T20:17:46.397Z,7.43
2023-07-25T20:20:14.500Z,8.27
2023-07-25T20:22:42.559Z,7.23
2023-07-25T20:25:11.622Z,6.93
2023-07-25T20:27:41.052Z,6.93
2023-07-25T20:30:10.349Z,7.13
2023-07-25T20:32:38.448Z,7.50
2023-07-25T20:35:07.167Z,6.93
2023-07-25T20:37:35.167Z,6.77
2023-07-25T20:40:06.480Z,7.23
2023-07-25T20:42:35.994Z,7.67
2023-07-25T20:45:05.856Z,7.90
2023-07-25T20:47:34.591Z,7.23
2023-07-25T20:50:05.322Z,6.60
2023-07-25T20:52:33.403Z,7.20
2023-07-25T20:55:01.384Z,6.97
2023-07-25T20:57:29.396Z,7.40
2023-07-25T20:59:57.678Z,8.20
2023-07-25T21:02:27.170Z,7.97
2023-07-25T21:04:55.392Z,7.77
2023-07-25T21:07:23.659Z,6.93
2023-07-25T21:09:55.128Z,6.83
2023-07-25T21:12:23.060Z,6.63
2023-07-25T21:14:51.222Z,7.27
2023-07-25T21:17:19.207Z,7.63
2023-07-25T21:19:48.603Z,7.70
2023-07-25T21:22:16.729Z,7.73
2023-07-25T21:24:44.751Z,6.90
2023-07-25T21:27:15.479Z,6.93
2023-07-25T21:29:43.636Z,7.47
2023-07-25T21:32:11.649Z,8.33
2023-07-25T21:34:39.705Z,8.70
2023-07-25T21:37:09.353Z,6.90
2023-07-25T21:39:37.546Z,7.40
2023-07-25T21:42:06.008Z,7.30
2023-07-25T21:44:34.044Z,10.17
2023-07-25T21:47:02.044Z,8.17
2023-07-25T21:49:30.083Z,7.43
2023-07-25T21:51:58.150Z,8.27
2023-07-25T21:54:27.668Z,6.37
2023-07-25T21:56:55.650Z,6.67
2023-07-25T21:59:23.720Z,7.07
2023-07-25T22:01:53.213Z,6.73
2023-07-25T22:04:21.361Z,5.97
2023-07-25T22:06:49.300Z,5.93
2023-07-25T22:09:18.062Z,7.30
2023-07-25T22:11:47.620Z,7.97
2023-07-25T22:14:15.686Z,6.53
2023-07-25T22:16:44.256Z,8.17
2023-07-25T22:19:12.444Z,11.77
2023-07-25T22:21:40.627Z,14.27
2023-07-25T22:24:09.033Z,14.07
2023-07-25T22:26:37.156Z,14.37
2023-07-25T22:29:06.494Z,9.77
2023-07-25T22:31:37.129Z,10.00
2023-07-25T22:34:05.922Z,6.67
2023-07-25T22:36:34.076Z,7.03
2023-07-25T22:39:02.400Z,7.80
2023-07-25T22:41:30.362Z,7.23
2023-07-25T22:43:58.278Z,8.30
2023-07-25T22:46:27.793Z,7.07
2023-07-25T22:48:55.797Z,6.90
2023-07-25T22:51:23.935Z,6.53
2023-07-25T22:53:52.088Z,7.43
2023-07-25T22:56:20.210Z,7.47
2023-07-25T22:58:48.503Z,7.67
2023-07-25T23:01:16.679Z,6.87
2023-07-25T23:03:46.063Z,7.97
2023-07-25T23:06:14.253Z,6.97
2023-07-25T23:08:42.225Z,6.87
2023-07-25T23:11:11.214Z,6.73
2023-07-25T23:13:39.198Z,7.20
2023-07-25T23:16:07.379Z,7.40
2023-07-25T23:18:35.479Z,7.37
2023-07-25T23:21:05.018Z,8.93
2023-07-25T23:23:33.022Z,12.37
2023-07-25T23:26:05.273Z,12.67
2023-07-25T23:28:33.623Z,13.03
2023-07-25T23:31:02.408Z,10.00
2023-07-25T23:33:30.494Z,11.17
2023-07-25T23:35:58.510Z,11.93
2023-07-25T23:38:28.053Z,11.00
2023-07-25T23:40:56.034Z,8.87
2023-07-25T23:43:23.999Z,7.83
2023-07-25T23:45:52.349Z,7.57
2023-07-25T23:48:20.959Z,6.73
2023-07-25T23:50:49.204Z,7.83
2023-07-25T23:53:17.222Z,7.93
2023-07-25T23:55:46.709Z,9.43
2023-07-25T23:58:14.728Z,8.07
